sensor_id;sensor_type;location;lat;lon;timestamp;temperature;humidity
75387;DHT22;63966;47.914;22.266;2023-04-03T00:01:12;6.40;77.89
75387;DHT22;63966;47.914;22.266;2023-04-03T00:04:15;6.40;77.72
75387;DHT22;63966;47.914;22.266;2023-04-03T00:07:19;6.37;77.47
75387;DHT22;63966;47.914;22.266;2023-04-03T00:10:22;6.31;77.31
75387;DHT22;63966;47.914;22.266;2023-04-03T00:13:26;6.30;77.56
75387;DHT22;63966;47.914;22.266;2023-04-03T00:16:29;6.26;77.66
75387;DHT22;63966;47.914;22.266;2023-04-03T00:19:33;6.30;77.37
75387;DHT22;63966;47.914;22.266;2023-04-03T00:22:36;6.27;76.99
75387;DHT22;63966;47.914;22.266;2023-04-03T00:25:40;6.26;76.73
75387;DHT22;63966;47.914;22.266;2023-04-03T00:28:43;6.20;76.76
75387;DHT22;63966;47.914;22.266;2023-04-03T00:31:46;6.21;77.36
75387;DHT22;63966;47.914;22.266;2023-04-03T00:34:50;6.20;77.49
75387;DHT22;63966;47.914;22.266;2023-04-03T00:37:54;6.19;77.14
75387;DHT22;63966;47.914;22.266;2023-04-03T00:40:58;6.19;77.12
75387;DHT22;63966;47.914;22.266;2023-04-03T00:44:17;6.13;77.39
75387;DHT22;63966;47.914;22.266;2023-04-03T00:47:21;6.06;78.09
75387;DHT22;63966;47.914;22.266;2023-04-03T00:50:25;6.07;78.01
75387;DHT22;63966;47.914;22.266;2023-04-03T00:53:48;5.98;78.19
75387;DHT22;63966;47.914;22.266;2023-04-03T00:56:53;5.95;78.58
75387;DHT22;63966;47.914;22.266;2023-04-03T01:00:05;5.92;78.21
75387;DHT22;63966;47.914;22.266;2023-04-03T01:03:10;5.89;78.06
75387;DHT22;63966;47.914;22.266;2023-04-03T01:06:17;5.85;78.64
75387;DHT22;63966;47.914;22.266;2023-04-03T01:09:24;5.86;78.10
75387;DHT22;63966;47.914;22.266;2023-04-03T01:12:30;5.90;77.90
75387;DHT22;63966;47.914;22.266;2023-04-03T01:15:35;5.90;77.84
75387;DHT22;63966;47.914;22.266;2023-04-03T01:18:39;5.86;78.11
75387;DHT22;63966;47.914;22.266;2023-04-03T01:22:10;5.90;77.52
75387;DHT22;63966;47.914;22.266;2023-04-03T01:25:18;5.86;77.83
75387;DHT22;63966;47.914;22.266;2023-04-03T01:28:26;5.83;77.54
75387;DHT22;63966;47.914;22.266;2023-04-03T01:34:57;5.78;77.73
75387;DHT22;63966;47.914;22.266;2023-04-03T01:38:00;5.78;76.87
75387;DHT22;63966;47.914;22.266;2023-04-03T01:41:04;5.75;77.38
75387;DHT22;63966;47.914;22.266;2023-04-03T01:44:07;5.75;77.76
75387;DHT22;63966;47.914;22.266;2023-04-03T01:47:11;5.72;77.68
75387;DHT22;63966;47.914;22.266;2023-04-03T01:50:16;5.68;77.46
75387;DHT22;63966;47.914;22.266;2023-04-03T01:53:21;5.66;77.63
75387;DHT22;63966;47.914;22.266;2023-04-03T01:56:24;5.65;77.09
75387;DHT22;63966;47.914;22.266;2023-04-03T01:59:28;5.62;76.65
75387;DHT22;63966;47.914;22.266;2023-04-03T02:02:32;5.58;77.33
75387;DHT22;63966;47.914;22.266;2023-04-03T02:05:35;5.55;77.53
75387;DHT22;63966;47.914;22.266;2023-04-03T02:08:39;5.48;77.43
75387;DHT22;63966;47.914;22.266;2023-04-03T02:11:43;5.47;77.54
75387;DHT22;63966;47.914;22.266;2023-04-03T02:14:47;5.44;77.56
75387;DHT22;63966;47.914;22.266;2023-04-03T02:17:50;5.41;77.83
75387;DHT22;63966;47.914;22.266;2023-04-03T02:20:54;5.37;78.06
75387;DHT22;63966;47.914;22.266;2023-04-03T02:23:57;5.34;78.13
75387;DHT22;63966;47.914;22.266;2023-04-03T02:27:01;5.34;77.92
75387;DHT22;63966;47.914;22.266;2023-04-03T02:30:05;5.33;77.83
75387;DHT22;63966;47.914;22.266;2023-04-03T02:33:09;5.24;77.69
75387;DHT22;63966;47.914;22.266;2023-04-03T02:36:13;5.26;77.90
75387;DHT22;63966;47.914;22.266;2023-04-03T02:39:20;5.20;77.60
75387;DHT22;63966;47.914;22.266;2023-04-03T02:42:23;5.23;77.76
75387;DHT22;63966;47.914;22.266;2023-04-03T02:45:27;5.17;77.52
75387;DHT22;63966;47.914;22.266;2023-04-03T02:48:32;5.16;78.32
75387;DHT22;63966;47.914;22.266;2023-04-03T02:51:36;5.14;78.14
75387;DHT22;63966;47.914;22.266;2023-04-03T02:54:40;5.13;78.30
75387;DHT22;63966;47.914;22.266;2023-04-03T02:57:45;5.16;77.75
75387;DHT22;63966;47.914;22.266;2023-04-03T03:00:49;5.13;77.86
75387;DHT22;63966;47.914;22.266;2023-04-03T03:03:53;5.13;77.71
75387;DHT22;63966;47.914;22.266;2023-04-03T03:06:56;5.13;77.42
75387;DHT22;63966;47.914;22.266;2023-04-03T03:09:59;5.13;77.75
75387;DHT22;63966;47.914;22.266;2023-04-03T03:13:03;5.06;77.76
75387;DHT22;63966;47.914;22.266;2023-04-03T03:16:07;5.07;77.35
75387;DHT22;63966;47.914;22.266;2023-04-03T03:19:10;5.07;77.54
75387;DHT22;63966;47.914;22.266;2023-04-03T03:22:14;5.06;77.80
75387;DHT22;63966;47.914;22.266;2023-04-03T03:25:17;5.04;77.86
75387;DHT22;63966;47.914;22.266;2023-04-03T03:28:21;5.01;77.87
75387;DHT22;63966;47.914;22.266;2023-04-03T03:31:25;4.99;78.27
75387;DHT22;63966;47.914;22.266;2023-04-03T03:34:28;4.94;78.86
75387;DHT22;63966;47.914;22.266;2023-04-03T03:37:32;4.92;78.42
75387;DHT22;63966;47.914;22.266;2023-04-03T03:40:35;4.89;78.82
75387;DHT22;63966;47.914;22.266;2023-04-03T03:43:39;4.83;78.88
75387;DHT22;63966;47.914;22.266;2023-04-03T03:46:43;4.76;78.90
75387;DHT22;63966;47.914;22.266;2023-04-03T03:49:47;4.73;78.83
75387;DHT22;63966;47.914;22.266;2023-04-03T03:52:52;4.66;79.07
75387;DHT22;63966;47.914;22.266;2023-04-03T03:55:55;4.61;79.30
75387;DHT22;63966;47.914;22.266;2023-04-03T03:59:01;4.54;79.53
75387;DHT22;63966;47.914;22.266;2023-04-03T04:02:06;4.40;80.10
75387;DHT22;63966;47.914;22.266;2023-04-03T04:05:10;4.38;79.92
75387;DHT22;63966;47.914;22.266;2023-04-03T04:08:14;4.28;80.28
75387;DHT22;63966;47.914;22.266;2023-04-03T04:11:18;4.25;79.93
75387;DHT22;63966;47.914;22.266;2023-04-03T04:14:23;4.24;80.34
75387;DHT22;63966;47.914;22.266;2023-04-03T04:17:27;4.18;80.84
75387;DHT22;63966;47.914;22.266;2023-04-03T04:20:31;4.14;80.90
75387;DHT22;63966;47.914;22.266;2023-04-03T04:23:35;4.16;80.69
75387;DHT22;63966;47.914;22.266;2023-04-03T04:26:39;4.14;80.83
75387;DHT22;63966;47.914;22.266;2023-04-03T04:29:45;4.13;80.80
75387;DHT22;63966;47.914;22.266;2023-04-03T04:32:49;4.14;80.61
75387;DHT22;63966;47.914;22.266;2023-04-03T04:35:53;4.21;80.05
75387;DHT22;63966;47.914;22.266;2023-04-03T04:38:57;4.18;80.05
75387;DHT22;63966;47.914;22.266;2023-04-03T04:42:03;4.13;80.29
75387;DHT22;63966;47.914;22.266;2023-04-03T04:45:08;4.18;80.31
75387;DHT22;63966;47.914;22.266;2023-04-03T04:48:14;4.24;80.14
75387;DHT22;63966;47.914;22.266;2023-04-03T04:51:18;4.27;79.89
75387;DHT22;63966;47.914;22.266;2023-04-03T04:54:21;4.37;79.58
75387;DHT22;63966;47.914;22.266;2023-04-03T04:57:26;4.44;79.27
75387;DHT22;63966;47.914;22.266;2023-04-03T05:00:30;4.56;78.23
75387;DHT22;63966;47.914;22.266;2023-04-03T05:03:33;5.76;75.11
75387;DHT22;63966;47.914;22.266;2023-04-03T05:06:37;6.72;70.29
75387;DHT22;63966;47.914;22.266;2023-04-03T05:09:45;6.55;70.78
75387;DHT22;63966;47.914;22.266;2023-04-03T05:12:50;6.77;70.12
75387;DHT22;63966;47.914;22.266;2023-04-03T05:15:54;7.27;68.11
75387;DHT22;63966;47.914;22.266;2023-04-03T05:18:58;7.91;66.32
75387;DHT22;63966;47.914;22.266;2023-04-03T05:22:03;6.40;69.91
75387;DHT22;63966;47.914;22.266;2023-04-03T05:25:07;5.68;72.27
75387;DHT22;63966;47.914;22.266;2023-04-03T05:28:12;6.26;71.49
75387;DHT22;63966;47.914;22.266;2023-04-03T05:31:16;8.01;66.14
75387;DHT22;63966;47.914;22.266;2023-04-03T05:34:20;9.35;61.02
75387;DHT22;63966;47.914;22.266;2023-04-03T05:37:26;8.92;61.36
75387;DHT22;63966;47.914;22.266;2023-04-03T05:40:30;8.82;62.34
75387;DHT22;63966;47.914;22.266;2023-04-03T05:43:33;9.66;59.11
75387;DHT22;63966;47.914;22.266;2023-04-03T05:46:38;9.77;58.17
75387;DHT22;63966;47.914;22.266;2023-04-03T05:49:44;10.45;57.11
75387;DHT22;63966;47.914;22.266;2023-04-03T05:52:52;10.18;56.43
75387;DHT22;63966;47.914;22.266;2023-04-03T05:55:56;9.91;57.23
75387;DHT22;63966;47.914;22.266;2023-04-03T05:59:00;9.63;57.73
75387;DHT22;63966;47.914;22.266;2023-04-03T06:02:04;9.93;57.22
75387;DHT22;63966;47.914;22.266;2023-04-03T06:05:09;10.22;56.39
75387;DHT22;63966;47.914;22.266;2023-04-03T06:08:14;10.08;56.48
75387;DHT22;63966;47.914;22.266;2023-04-03T06:11:18;10.50;55.67
75387;DHT22;63966;47.914;22.266;2023-04-03T06:14:22;11.58;53.52
75387;DHT22;63966;47.914;22.266;2023-04-03T06:17:25;10.73;54.88
75387;DHT22;63966;47.914;22.266;2023-04-03T06:20:30;10.81;54.85
75387;DHT22;63966;47.914;22.266;2023-04-03T06:23:34;11.42;53.49
75387;DHT22;63966;47.914;22.266;2023-04-03T06:26:37;11.83;51.62
75387;DHT22;63966;47.914;22.266;2023-04-03T06:29:41;11.39;52.17
75387;DHT22;63966;47.914;22.266;2023-04-03T06:32:45;12.23;50.12
75387;DHT22;63966;47.914;22.266;2023-04-03T06:35:48;11.98;49.96
75387;DHT22;63966;47.914;22.266;2023-04-03T06:38:52;12.18;49.32
75387;DHT22;63966;47.914;22.266;2023-04-03T06:41:55;11.57;49.32
75387;DHT22;63966;47.914;22.266;2023-04-03T06:45:10;12.20;49.55
75387;DHT22;63966;47.914;22.266;2023-04-03T06:48:14;12.49;48.78
75387;DHT22;63966;47.914;22.266;2023-04-03T06:51:26;11.48;49.70
75387;DHT22;63966;47.914;22.266;2023-04-03T06:54:31;11.54;50.76
75387;DHT22;63966;47.914;22.266;2023-04-03T06:57:34;12.69;47.70
75387;DHT22;63966;47.914;22.266;2023-04-03T07:00:38;12.58;47.60
75387;DHT22;63966;47.914;22.266;2023-04-03T07:03:42;12.37;48.88
75387;DHT22;63966;47.914;22.266;2023-04-03T07:06:47;12.25;48.85
75387;DHT22;63966;47.914;22.266;2023-04-03T07:09:54;12.06;49.60
75387;DHT22;63966;47.914;22.266;2023-04-03T07:13:02;12.30;48.08
75387;DHT22;63966;47.914;22.266;2023-04-03T07:16:14;13.24;45.99
75387;DHT22;63966;47.914;22.266;2023-04-03T07:19:21;12.96;47.10
75387;DHT22;63966;47.914;22.266;2023-04-03T07:22:27;13.17;46.16
75387;DHT22;63966;47.914;22.266;2023-04-03T07:25:31;12.86;47.22
75387;DHT22;63966;47.914;22.266;2023-04-03T07:28:34;12.45;48.77
75387;DHT22;63966;47.914;22.266;2023-04-03T07:31:40;12.48;49.10
75387;DHT22;63966;47.914;22.266;2023-04-03T07:34:44;13.33;46.73
75387;DHT22;63966;47.914;22.266;2023-04-03T07:37:48;13.30;47.41
75387;DHT22;63966;47.914;22.266;2023-04-03T07:40:52;13.03;46.03
75387;DHT22;63966;47.914;22.266;2023-04-03T07:43:57;12.31;48.80
75387;DHT22;63966;47.914;22.266;2023-04-03T07:47:00;12.56;48.40
75387;DHT22;63966;47.914;22.266;2023-04-03T07:50:04;12.20;47.91
75387;DHT22;63966;47.914;22.266;2023-04-03T07:53:08;12.91;48.22
75387;DHT22;63966;47.914;22.266;2023-04-03T07:56:12;12.06;48.15
75387;DHT22;63966;47.914;22.266;2023-04-03T07:59:16;13.16;47.28
75387;DHT22;63966;47.914;22.266;2023-04-03T08:02:19;12.96;46.89
75387;DHT22;63966;47.914;22.266;2023-04-03T08:05:23;13.46;47.50
75387;DHT22;63966;47.914;22.266;2023-04-03T08:08:26;13.37;46.91
75387;DHT22;63966;47.914;22.266;2023-04-03T08:11:32;13.27;45.37
75387;DHT22;63966;47.914;22.266;2023-04-03T08:14:36;12.69;47.03
75387;DHT22;63966;47.914;22.266;2023-04-03T08:17:40;12.66;46.46
75387;DHT22;63966;47.914;22.266;2023-04-03T08:20:44;12.69;47.89
75387;DHT22;63966;47.914;22.266;2023-04-03T08:23:50;12.48;47.47
75387;DHT22;63966;47.914;22.266;2023-04-03T08:26:54;13.21;46.22
75387;DHT22;63966;47.914;22.266;2023-04-03T08:29:58;12.75;47.53
75387;DHT22;63966;47.914;22.266;2023-04-03T08:33:04;13.17;47.29
75387;DHT22;63966;47.914;22.266;2023-04-03T08:36:17;12.35;49.25
75387;DHT22;63966;47.914;22.266;2023-04-03T08:39:21;11.07;52.66
75387;DHT22;63966;47.914;22.266;2023-04-03T08:42:36;11.32;53.41
75387;DHT22;63966;47.914;22.266;2023-04-03T08:45:50;10.90;54.58
75387;DHT22;63966;47.914;22.266;2023-04-03T08:48:55;10.28;53.86
75387;DHT22;63966;47.914;22.266;2023-04-03T08:52:10;10.34;54.85
75387;DHT22;63966;47.914;22.266;2023-04-03T08:55:26;10.46;54.54
75387;DHT22;63966;47.914;22.266;2023-04-03T08:58:33;10.19;53.90
75387;DHT22;63966;47.914;22.266;2023-04-03T09:01:41;10.55;54.97
75387;DHT22;63966;47.914;22.266;2023-04-03T09:04:46;9.98;56.48
75387;DHT22;63966;47.914;22.266;2023-04-03T09:15:09;9.61;57.46
75387;DHT22;63966;47.914;22.266;2023-04-03T09:18:23;9.69;56.13
75387;DHT22;63966;47.914;22.266;2023-04-03T09:21:37;9.81;56.06
75387;DHT22;63966;47.914;22.266;2023-04-03T09:24:47;9.98;56.69
75387;DHT22;63966;47.914;22.266;2023-04-03T09:27:53;9.94;55.39
75387;DHT22;63966;47.914;22.266;2023-04-03T09:30:56;9.86;56.17
75387;DHT22;63966;47.914;22.266;2023-04-03T09:34:06;9.60;57.02
75387;DHT22;63966;47.914;22.266;2023-04-03T09:37:33;9.54;57.09
75387;DHT22;63966;47.914;22.266;2023-04-03T09:40:50;10.29;57.56
75387;DHT22;63966;47.914;22.266;2023-04-03T09:43:56;10.21;55.53
75387;DHT22;63966;47.914;22.266;2023-04-03T09:47:00;10.35;54.60
75387;DHT22;63966;47.914;22.266;2023-04-03T09:50:21;9.78;55.38
75387;DHT22;63966;47.914;22.266;2023-04-03T09:53:41;9.83;56.23
75387;DHT22;63966;47.914;22.266;2023-04-03T09:56:50;10.01;55.40
75387;DHT22;63966;47.914;22.266;2023-04-03T09:59:59;9.66;56.26
75387;DHT22;63966;47.914;22.266;2023-04-03T10:03:28;9.94;54.69
75387;DHT22;63966;47.914;22.266;2023-04-03T10:06:39;9.90;53.16
75387;DHT22;63966;47.914;22.266;2023-04-03T10:09:57;10.01;53.47
75387;DHT22;63966;47.914;22.266;2023-04-03T10:13:10;9.76;53.40
75387;DHT22;63966;47.914;22.266;2023-04-03T10:16:55;9.57;56.06
75387;DHT22;63966;47.914;22.266;2023-04-03T10:23:24;10.15;54.76
75387;DHT22;63966;47.914;22.266;2023-04-03T10:26:45;9.61;55.94
75387;DHT22;63966;47.914;22.266;2023-04-03T10:40:40;9.69;56.62
75387;DHT22;63966;47.914;22.266;2023-04-03T10:44:02;9.56;57.03
75387;DHT22;63966;47.914;22.266;2023-04-03T10:47:51;9.70;57.34
75387;DHT22;63966;47.914;22.266;2023-04-03T10:51:41;9.70;55.22
75387;DHT22;63966;47.914;22.266;2023-04-03T10:55:34;9.51;57.69
75387;DHT22;63966;47.914;22.266;2023-04-03T11:02:31;9.18;56.57
75387;DHT22;63966;47.914;22.266;2023-04-03T11:05:53;9.35;58.69
75387;DHT22;63966;47.914;22.266;2023-04-03T11:12:49;8.97;58.07
75387;DHT22;63966;47.914;22.266;2023-04-03T11:15:58;8.92;58.11
75387;DHT22;63966;47.914;22.266;2023-04-03T11:19:21;9.19;57.96
75387;DHT22;63966;47.914;22.266;2023-04-03T11:22:31;9.02;57.61
75387;DHT22;63966;47.914;22.266;2023-04-03T11:25:37;9.11;58.34
75387;DHT22;63966;47.914;22.266;2023-04-03T11:28:42;9.07;57.80
75387;DHT22;63966;47.914;22.266;2023-04-03T11:32:56;9.05;58.66
75387;DHT22;63966;47.914;22.266;2023-04-03T11:35:34;8.89;57.93
75387;DHT22;63966;47.914;22.266;2023-04-03T11:38:43;9.08;59.93
75387;DHT22;63966;47.914;22.266;2023-04-03T11:41:47;8.92;58.51
75387;DHT22;63966;47.914;22.266;2023-04-03T11:51:41;8.74;59.10
75387;DHT22;63966;47.914;22.266;2023-04-03T11:54:47;8.64;58.21
75387;DHT22;63966;47.914;22.266;2023-04-03T12:05:26;8.43;59.44
75387;DHT22;63966;47.914;22.266;2023-04-03T12:08:45;8.47;59.93
75387;DHT22;63966;47.914;22.266;2023-04-03T12:11:49;8.60;58.38
75387;DHT22;63966;47.914;22.266;2023-04-03T12:14:54;8.37;59.46
75387;DHT22;63966;47.914;22.266;2023-04-03T12:17:58;8.65;59.95
75387;DHT22;63966;47.914;22.266;2023-04-03T12:21:02;8.40;58.87
75387;DHT22;63966;47.914;22.266;2023-04-03T12:27:43;8.25;59.03
75387;DHT22;63966;47.914;22.266;2023-04-03T12:30:46;8.67;58.16
75387;DHT22;63966;47.914;22.266;2023-04-03T12:44:26;8.46;59.47
75387;DHT22;63966;47.914;22.266;2023-04-03T12:47:37;8.21;59.81
75387;DHT22;63966;47.914;22.266;2023-04-03T12:50:46;8.19;60.04
75387;DHT22;63966;47.914;22.266;2023-04-03T12:53:52;7.88;60.27
75387;DHT22;63966;47.914;22.266;2023-04-03T12:57:22;8.02;60.63
75387;DHT22;63966;47.914;22.266;2023-04-03T13:00:33;7.75;60.79
75387;DHT22;63966;47.914;22.266;2023-04-03T13:03:44;7.75;60.39
75387;DHT22;63966;47.914;22.266;2023-04-03T13:06:49;7.57;60.52
75387;DHT22;63966;47.914;22.266;2023-04-03T13:09:58;7.51;61.22
75387;DHT22;63966;47.914;22.266;2023-04-03T13:13:10;7.28;60.37
75387;DHT22;63966;47.914;22.266;2023-04-03T13:16:17;7.60;61.96
75387;DHT22;63966;47.914;22.266;2023-04-03T13:19:24;7.63;61.77
75387;DHT22;63966;47.914;22.266;2023-04-03T13:22:36;7.48;61.35
75387;DHT22;63966;47.914;22.266;2023-04-03T13:25:47;7.36;61.23
75387;DHT22;63966;47.914;22.266;2023-04-03T13:28:51;7.36;61.41
75387;DHT22;63966;47.914;22.266;2023-04-03T13:31:57;7.40;62.39
75387;DHT22;63966;47.914;22.266;2023-04-03T13:35:02;7.27;61.48
75387;DHT22;63966;47.914;22.266;2023-04-03T13:38:25;7.09;60.87
75387;DHT22;63966;47.914;22.266;2023-04-03T13:41:35;7.09;61.12
75387;DHT22;63966;47.914;22.266;2023-04-03T13:44:39;7.15;61.88
75387;DHT22;63966;47.914;22.266;2023-04-03T13:47:44;7.06;60.46
75387;DHT22;63966;47.914;22.266;2023-04-03T13:51:04;7.10;61.60
75387;DHT22;63966;47.914;22.266;2023-04-03T13:54:22;7.09;61.36
75387;DHT22;63966;47.914;22.266;2023-04-03T13:57:27;7.12;60.52
75387;DHT22;63966;47.914;22.266;2023-04-03T14:06:49;6.72;60.03
75387;DHT22;63966;47.914;22.266;2023-04-03T14:09:53;6.99;60.43
75387;DHT22;63966;47.914;22.266;2023-04-03T14:12:57;6.89;60.69
75387;DHT22;63966;47.914;22.266;2023-04-03T14:16:00;6.68;60.51
75387;DHT22;63966;47.914;22.266;2023-04-03T14:19:38;6.68;61.36
75387;DHT22;63966;47.914;22.266;2023-04-03T14:22:42;6.77;61.34
75387;DHT22;63966;47.914;22.266;2023-04-03T14:25:45;6.63;60.68
75387;DHT22;63966;47.914;22.266;2023-04-03T14:28:51;6.47;60.65
75387;DHT22;63966;47.914;22.266;2023-04-03T14:31:56;6.34;60.65
75387;DHT22;63966;47.914;22.266;2023-04-03T14:35:18;6.38;61.02
75387;DHT22;63966;47.914;22.266;2023-04-03T14:38:25;6.44;59.85
75387;DHT22;63966;47.914;22.266;2023-04-03T14:41:29;6.47;60.77
75387;DHT22;63966;47.914;22.266;2023-04-03T14:44:33;6.52;61.69
75387;DHT22;63966;47.914;22.266;2023-04-03T14:47:44;6.40;61.60
75387;DHT22;63966;47.914;22.266;2023-04-03T14:50:50;6.36;60.91
75387;DHT22;63966;47.914;22.266;2023-04-03T14:54:14;6.20;60.86
75387;DHT22;63966;47.914;22.266;2023-04-03T14:57:18;6.23;61.83
75387;DHT22;63966;47.914;22.266;2023-04-03T15:00:22;6.17;62.09
75387;DHT22;63966;47.914;22.266;2023-04-03T15:03:26;6.00;61.99
75387;DHT22;63966;47.914;22.266;2023-04-03T15:06:31;5.89;61.43
75387;DHT22;63966;47.914;22.266;2023-04-03T15:09:36;5.83;62.06
75387;DHT22;63966;47.914;22.266;2023-04-03T15:12:43;5.99;61.99
75387;DHT22;63966;47.914;22.266;2023-04-03T15:15:46;5.93;61.65
75387;DHT22;63966;47.914;22.266;2023-04-03T15:18:50;5.61;61.98
75387;DHT22;63966;47.914;22.266;2023-04-03T15:21:54;5.62;62.14
75387;DHT22;63966;47.914;22.266;2023-04-03T15:24:58;5.52;61.95
75387;DHT22;63966;47.914;22.266;2023-04-03T15:28:01;5.51;61.95
75387;DHT22;63966;47.914;22.266;2023-04-03T15:31:06;5.51;62.55
75387;DHT22;63966;47.914;22.266;2023-04-03T15:34:09;5.30;62.64
75387;DHT22;63966;47.914;22.266;2023-04-03T15:37:13;5.27;63.20
75387;DHT22;63966;47.914;22.266;2023-04-03T15:40:17;5.27;62.55
75387;DHT22;63966;47.914;22.266;2023-04-03T15:43:20;5.17;62.57
75387;DHT22;63966;47.914;22.266;2023-04-03T15:46:24;5.01;63.09
75387;DHT22;63966;47.914;22.266;2023-04-03T15:49:28;4.90;63.08
75387;DHT22;63966;47.914;22.266;2023-04-03T15:52:33;4.80;63.83
75387;DHT22;63966;47.914;22.266;2023-04-03T15:55:38;4.64;63.46
75387;DHT22;63966;47.914;22.266;2023-04-03T15:58:42;4.55;64.38
75387;DHT22;63966;47.914;22.266;2023-04-03T16:01:47;4.42;64.14
75387;DHT22;63966;47.914;22.266;2023-04-03T16:04:50;4.34;64.45
75387;DHT22;63966;47.914;22.266;2023-04-03T16:07:54;4.27;64.73
75387;DHT22;63966;47.914;22.266;2023-04-03T16:10:58;4.20;64.71
75387;DHT22;63966;47.914;22.266;2023-04-03T16:14:02;4.10;64.88
75387;DHT22;63966;47.914;22.266;2023-04-03T16:17:06;4.01;65.03
75387;DHT22;63966;47.914;22.266;2023-04-03T16:20:12;3.93;65.16
75387;DHT22;63966;47.914;22.266;2023-04-03T16:23:16;3.90;64.89
75387;DHT22;63966;47.914;22.266;2023-04-03T16:26:20;3.76;64.73
75387;DHT22;63966;47.914;22.266;2023-04-03T16:29:24;3.69;64.74
75387;DHT22;63966;47.914;22.266;2023-04-03T16:32:29;3.58;64.87
75387;DHT22;63966;47.914;22.266;2023-04-03T16:35:33;3.43;65.30
75387;DHT22;63966;47.914;22.266;2023-04-03T16:38:37;3.31;65.62
75387;DHT22;63966;47.914;22.266;2023-04-03T16:41:40;3.25;65.83
75387;DHT22;63966;47.914;22.266;2023-04-03T16:44:44;3.17;65.57
75387;DHT22;63966;47.914;22.266;2023-04-03T16:47:48;3.11;66.34
75387;DHT22;63966;47.914;22.266;2023-04-03T16:50:51;3.00;66.36
75387;DHT22;63966;47.914;22.266;2023-04-03T16:53:57;2.93;66.04
75387;DHT22;63966;47.914;22.266;2023-04-03T16:57:00;2.87;66.28
75387;DHT22;63966;47.914;22.266;2023-04-03T17:00:06;2.77;67.07
75387;DHT22;63966;47.914;22.266;2023-04-03T17:03:10;2.75;67.21
75387;DHT22;63966;47.914;22.266;2023-04-03T17:06:19;2.67;67.36
75387;DHT22;63966;47.914;22.266;2023-04-03T17:09:23;2.59;67.31
75387;DHT22;63966;47.914;22.266;2023-04-03T17:12:26;2.53;67.03
75387;DHT22;63966;47.914;22.266;2023-04-03T17:15:30;2.52;67.38
75387;DHT22;63966;47.914;22.266;2023-04-03T17:18:34;2.42;67.41
75387;DHT22;63966;47.914;22.266;2023-04-03T17:21:38;2.34;68.22
75387;DHT22;63966;47.914;22.266;2023-04-03T17:24:41;2.32;68.24
75387;DHT22;63966;47.914;22.266;2023-04-03T17:27:45;2.24;68.38
75387;DHT22;63966;47.914;22.266;2023-04-03T17:30:48;2.18;68.81
75387;DHT22;63966;47.914;22.266;2023-04-03T17:33:52;2.17;68.98
75387;DHT22;63966;47.914;22.266;2023-04-03T17:36:55;2.14;69.01
75387;DHT22;63966;47.914;22.266;2023-04-03T17:39:59;2.07;69.36
75387;DHT22;63966;47.914;22.266;2023-04-03T17:43:03;2.01;69.85
75387;DHT22;63966;47.914;22.266;2023-04-03T17:46:08;2.03;69.53
75387;DHT22;63966;47.914;22.266;2023-04-03T17:49:12;1.97;69.94
75387;DHT22;63966;47.914;22.266;2023-04-03T17:52:17;1.93;70.03
75387;DHT22;63966;47.914;22.266;2023-04-03T17:55:21;1.91;69.78
75387;DHT22;63966;47.914;22.266;2023-04-03T17:58:25;1.80;70.96
75387;DHT22;63966;47.914;22.266;2023-04-03T18:01:32;1.80;70.43
75387;DHT22;63966;47.914;22.266;2023-04-03T18:04:36;1.76;70.49
75387;DHT22;63966;47.914;22.266;2023-04-03T18:07:40;1.77;70.94
75387;DHT22;63966;47.914;22.266;2023-04-03T18:10:44;1.71;71.10
75387;DHT22;63966;47.914;22.266;2023-04-03T18:13:48;1.67;71.19
75387;DHT22;63966;47.914;22.266;2023-04-03T18:16:52;1.64;71.27
75387;DHT22;63966;47.914;22.266;2023-04-03T18:19:56;1.63;70.94
75387;DHT22;63966;47.914;22.266;2023-04-03T18:22:59;1.60;71.57
75387;DHT22;63966;47.914;22.266;2023-04-03T18:26:03;1.59;71.43
75387;DHT22;63966;47.914;22.266;2023-04-03T18:29:10;1.57;71.70
75387;DHT22;63966;47.914;22.266;2023-04-03T18:32:17;1.57;71.01
75387;DHT22;63966;47.914;22.266;2023-04-03T18:35:21;1.52;71.70
75387;DHT22;63966;47.914;22.266;2023-04-03T18:38:25;1.49;71.65
75387;DHT22;63966;47.914;22.266;2023-04-03T18:41:31;1.47;71.35
75387;DHT22;63966;47.914;22.266;2023-04-03T18:44:36;1.46;71.66
75387;DHT22;63966;47.914;22.266;2023-04-03T18:47:40;1.40;71.82
75387;DHT22;63966;47.914;22.266;2023-04-03T18:50:44;1.43;71.66
75387;DHT22;63966;47.914;22.266;2023-04-03T18:53:48;1.39;71.52
75387;DHT22;63966;47.914;22.266;2023-04-03T18:56:52;1.42;71.65
75387;DHT22;63966;47.914;22.266;2023-04-03T18:59:56;1.43;71.14
75387;DHT22;63966;47.914;22.266;2023-04-03T19:03:00;1.40;71.25
75387;DHT22;63966;47.914;22.266;2023-04-03T19:06:04;1.36;71.59
75387;DHT22;63966;47.914;22.266;2023-04-03T19:09:08;1.31;72.19
75387;DHT22;63966;47.914;22.266;2023-04-03T19:12:11;1.31;71.58
75387;DHT22;63966;47.914;22.266;2023-04-03T19:15:17;1.32;71.45
75387;DHT22;63966;47.914;22.266;2023-04-03T19:18:21;1.31;71.45
75387;DHT22;63966;47.914;22.266;2023-04-03T19:21:25;1.26;71.73
75387;DHT22;63966;47.914;22.266;2023-04-03T19:24:29;1.26;71.76
75387;DHT22;63966;47.914;22.266;2023-04-03T19:27:33;1.26;71.64
75387;DHT22;63966;47.914;22.266;2023-04-03T19:30:37;1.24;71.39
75387;DHT22;63966;47.914;22.266;2023-04-03T19:33:42;1.29;71.09
75387;DHT22;63966;47.914;22.266;2023-04-03T19:36:46;1.22;71.70
75387;DHT22;63966;47.914;22.266;2023-04-03T19:39:50;1.21;71.48
75387;DHT22;63966;47.914;22.266;2023-04-03T19:42:54;1.19;71.42
75387;DHT22;63966;47.914;22.266;2023-04-03T19:45:58;1.19;71.66
75387;DHT22;63966;47.914;22.266;2023-04-03T19:49:02;1.21;71.67
75387;DHT22;63966;47.914;22.266;2023-04-03T19:52:05;1.21;71.08
75387;DHT22;63966;47.914;22.266;2023-04-03T19:55:10;1.19;71.26
75387;DHT22;63966;47.914;22.266;2023-04-03T19:58:13;1.22;70.87
75387;DHT22;63966;47.914;22.266;2023-04-03T20:01:18;1.25;70.96
75387;DHT22;63966;47.914;22.266;2023-04-03T20:04:21;1.22;70.97
75387;DHT22;63966;47.914;22.266;2023-04-03T20:07:25;1.15;71.39
75387;DHT22;63966;47.914;22.266;2023-04-03T20:10:30;1.17;71.25
75387;DHT22;63966;47.914;22.266;2023-04-03T20:13:34;1.17;71.13
75387;DHT22;63966;47.914;22.266;2023-04-03T20:16:37;1.19;70.84
75387;DHT22;63966;47.914;22.266;2023-04-03T20:19:41;1.18;70.46
75387;DHT22;63966;47.914;22.266;2023-04-03T20:22:45;1.24;70.18
75387;DHT22;63966;47.914;22.266;2023-04-03T20:25:49;1.21;70.04
75387;DHT22;63966;47.914;22.266;2023-04-03T20:29:11;1.22;69.97
75387;DHT22;63966;47.914;22.266;2023-04-03T20:32:16;1.18;70.35
75387;DHT22;63966;47.914;22.266;2023-04-03T20:35:20;1.22;69.89
75387;DHT22;63966;47.914;22.266;2023-04-03T20:38:24;1.18;70.08
75387;DHT22;63966;47.914;22.266;2023-04-03T20:41:27;1.19;69.83